Terminal Aerodrome Forecast
Issued by NWS Northern Indiana

Home | Current Version | Previous Version | Text Only | Print | Product List | Glossary On
Versions: 1 2 3 4 5 6 7 8 9 10 11 12 13 14 15 16 17 18 19
000
FTUS43 KIWX 170218 AAA
TAFFWA
TAF AMD
KFWA 170218Z 1702/1724 11007KT 1/2SM -RA FG OVC003
      TEMPO 1702/1704 1/4SM -RA FG
     FM170400 13007KT 2SM RA BR OVC003 WS020/19035KT
     FM170900 17008KT 1SM RA BR OVC003 WS020/20040KT
     FM171100 20008KT 1SM RA BR OVC003
     FM171400 23008KT 2SM RA BR OVC015
     FM171600 24010KT 4SM BR OVC008=

USA.gov is the U.S. government's official web portal to all federal, state and local government web resources and services.